Time;durP1;ratioP1;P1;durP2;ratioP2;P2;SDS_P1;SDS_P2;PMS_P1;PMS_P2;Temp;Humidity;BMP_temperature;BMP_pressure;BME280_temperature;BME280_humidity;BME280_pressure;Samples;Min_cycle;Max_cycle;Signal;HPM_P1;HPM_P2
2021/04/22 00:00:24;;;;;;;;;;;18.80;40.50;;;;;;505857;235;1090;-44
2021/04/22 00:02:26;;;;;;;;;;;18.80;40.50;;;;;;505561;235;1071;-44
2021/04/22 00:04:27;;;;;;;;;;;18.80;40.50;;;;;;505356;235;2178;-44
2021/04/22 00:06:28;;;;;;;;;;;18.80;40.50;;;;;;505494;235;1133;-44
2021/04/22 00:08:29;;;;;;;;;;;18.90;40.50;;;;;;505492;235;1024;-45
2021/04/22 00:10:31;;;;;;;;;;;18.90;40.50;;;;;;505512;235;1049;-44
2021/04/22 00:12:32;;;;;;;;;;;18.80;40.50;;;;;;505322;235;1096;-45
2021/04/22 00:14:33;;;;;;;;;;;18.90;40.50;;;;;;505785;235;1092;-44
2021/04/22 00:16:35;;;;;;;;;;;18.80;40.50;;;;;;505316;236;1041;-44
2021/04/22 00:18:36;;;;;;;;;;;18.80;40.40;;;;;;505752;235;1084;-44
2021/04/22 00:20:37;;;;;;;;;;;18.90;40.40;;;;;;505815;235;1238;-44
2021/04/22 00:22:38;;;;;;;;;;;18.80;40.40;;;;;;505581;234;1162;-44
2021/04/22 00:24:40;;;;;;;;;;;18.90;40.50;;;;;;505343;235;2165;-44
2021/04/22 00:26:41;;;;;;;;;;;18.90;40.50;;;;;;505596;235;1008;-44
2021/04/22 00:28:42;;;;;;;;;;;18.90;40.50;;;;;;505721;235;1053;-44
2021/04/22 00:30:44;;;;;;;;;;;18.80;40.40;;;;;;505387;235;1036;-44
2021/04/22 00:32:45;;;;;;;;;;;18.90;40.50;;;;;;505382;234;1050;-44
2021/04/22 00:34:46;;;;;;;;;;;18.80;40.40;;;;;;505508;234;1099;-44
2021/04/22 00:36:47;;;;;;;;;;;18.90;40.50;;;;;;505453;235;1191;-44
2021/04/22 00:38:49;;;;;;;;;;;18.80;40.40;;;;;;505809;236;1036;-44
2021/04/22 00:40:50;;;;;;;;;;;18.80;40.50;;;;;;505635;235;1199;-44
2021/04/22 00:42:51;;;;;;;;;;;18.90;40.50;;;;;;505511;235;2178;-45
2021/04/22 00:44:53;;;;;;;;;;;18.90;40.50;;;;;;505421;234;1009;-44
2021/04/22 00:46:54;;;;;;;;;;;18.80;40.50;;;;;;505262;235;1073;-44
2021/04/22 00:48:55;;;;;;;;;;;18.80;40.40;;;;;;505835;235;1028;-44
2021/04/22 00:50:56;;;;;;;;;;;18.80;40.50;;;;;;505458;234;1264;-44
2021/04/22 00:52:58;;;;;;;;;;;18.90;40.40;;;;;;505338;235;1131;-45
2021/04/22 00:54:59;;;;;;;;;;;18.90;40.30;;;;;;505394;235;1019;-44
2021/04/22 00:57:00;;;;;;;;;;;18.80;40.40;;;;;;505675;235;1021;-44
2021/04/22 00:59:01;;;;;;;;;;;18.80;40.40;;;;;;505351;235;1064;-44
2021/04/22 01:01:03;;;;;;;;;;;18.80;40.50;;;;;;505576;235;1271;-44
2021/04/22 01:03:04;;;;;;;;;;;18.80;40.60;;;;;;505332;235;2130;-44
2021/04/22 01:05:05;;;;;;;;;;;18.80;40.50;;;;;;505247;235;1103;-44
2021/04/22 01:07:07;;;;;;;;;;;18.80;40.50;;;;;;505313;235;1134;-44
2021/04/22 01:09:09;;;;;;;;;;;18.80;40.60;;;;;;505840;236;1043;-44
2021/04/22 01:11:09;;;;;;;;;;;18.80;40.60;;;;;;505328;235;1291;-45
2021/04/22 01:13:10;;;;;;;;;;;18.80;40.50;;;;;;505326;235;1063;-44
2021/04/22 01:15:12;;;;;;;;;;;18.80;40.40;;;;;;505382;235;1094;-44
2021/04/22 01:17:13;;;;;;;;;;;18.80;40.50;;;;;;505698;235;1033;-44
2021/04/22 01:19:14;;;;;;;;;;;18.70;40.50;;;;;;505584;235;971;-44
2021/04/22 01:21:15;;;;;;;;;;;18.70;40.60;;;;;;505347;235;1069;-44
2021/04/22 01:23:17;;;;;;;;;;;18.80;40.50;;;;;;505378;235;2193;-44
2021/04/22 01:25:18;;;;;;;;;;;18.70;40.70;;;;;;505687;235;1218;-45
2021/04/22 01:27:19;;;;;;;;;;;18.70;40.60;;;;;;505883;235;1097;-45
2021/04/22 01:29:21;;;;;;;;;;;18.70;40.60;;;;;;505619;235;1032;-44
2021/04/22 01:31:24;;;;;;;;;;;18.70;40.60;;;;;;505317;235;1092;-45
2021/04/22 01:33:23;;;;;;;;;;;18.70;40.70;;;;;;505297;235;2270;-45
2021/04/22 01:35:24;;;;;;;;;;;18.70;40.70;;;;;;505436;235;1116;-44
2021/04/22 01:37:26;;;;;;;;;;;18.70;40.70;;;;;;505255;235;1270;-44
2021/04/22 01:39:27;;;;;;;;;;;18.70;40.70;;;;;;505337;235;1055;-44
2021/04/22 01:41:28;;;;;;;;;;;18.70;40.70;;;;;;505356;235;1004;-44
2021/04/22 01:43:30;;;;;;;;;;;18.80;40.60;;;;;;505561;235;2186;-44
2021/04/22 01:45:31;;;;;;;;;;;18.80;40.50;;;;;;505519;235;1168;-44
2021/04/22 01:47:32;;;;;;;;;;;18.70;40.70;;;;;;505220;236;1081;-44
2021/04/22 01:49:34;;;;;;;;;;;18.70;40.70;;;;;;505326;235;1060;-45
2021/04/22 01:51:35;;;;;;;;;;;18.70;40.70;;;;;;505708;235;1210;-44
2021/04/22 01:53:36;;;;;;;;;;;18.70;40.80;;;;;;505350;234;1119;-44
2021/04/22 01:55:37;;;;;;;;;;;18.60;40.80;;;;;;505701;235;1076;-44
2021/04/22 01:57:39;;;;;;;;;;;18.60;40.80;;;;;;505488;236;1048;-44
2021/04/22 01:59:40;;;;;;;;;;;18.60;40.80;;;;;;505831;234;1077;-44
2021/04/22 02:01:41;;;;;;;;;;;18.60;40.90;;;;;;505825;235;1051;-45
2021/04/22 02:03:43;;;;;;;;;;;18.60;40.80;;;;;;505288;234;2174;-44
2021/04/22 02:05:44;;;;;;;;;;;18.60;40.90;;;;;;505678;235;1018;-45
2021/04/22 02:07:45;;;;;;;;;;;18.60;40.90;;;;;;505573;235;1481;-44
2021/04/22 02:09:46;;;;;;;;;;;18.60;40.90;;;;;;505710;235;1103;-44
2021/04/22 02:11:48;;;;;;;;;;;18.60;40.90;;;;;;505379;236;1037;-44
2021/04/22 02:13:49;;;;;;;;;;;18.60;40.90;;;;;;505946;235;1119;-44
2021/04/22 02:15:50;;;;;;;;;;;18.60;40.90;;;;;;505852;235;1017;-45
2021/04/22 02:17:51;;;;;;;;;;;18.60;40.80;;;;;;505284;234;1148;-44
2021/04/22 02:19:53;;;;;;;;;;;18.50;40.90;;;;;;505575;235;1082;-45
2021/04/22 02:21:54;;;;;;;;;;;18.50;41.00;;;;;;505822;234;1423;-44
2021/04/22 02:23:55;;;;;;;;;;;18.40;41.00;;;;;;505382;235;2177;-44
2021/04/22 02:25:57;;;;;;;;;;;18.50;41.10;;;;;;505316;235;1090;-44
2021/04/22 02:27:58;;;;;;;;;;;18.50;41.10;;;;;;505366;236;1105;-44
2021/04/22 02:29:59;;;;;;;;;;;18.50;41.00;;;;;;505479;235;1171;-44
2021/04/22 02:32:00;;;;;;;;;;;18.50;41.00;;;;;;505728;235;1153;-44
2021/04/22 02:34:02;;;;;;;;;;;18.40;41.00;;;;;;505752;235;1048;-44
2021/04/22 02:36:03;;;;;;;;;;;18.50;41.00;;;;;;505448;235;1072;-44
2021/04/22 02:38:04;;;;;;;;;;;18.40;41.10;;;;;;505376;235;1304;-44
2021/04/22 02:40:06;;;;;;;;;;;18.40;41.10;;;;;;505752;235;1075;-45
2021/04/22 02:42:07;;;;;;;;;;;18.40;41.10;;;;;;505285;235;1113;-44
2021/04/22 02:44:08;;;;;;;;;;;18.40;41.10;;;;;;505360;235;2201;-44
2021/04/22 02:46:09;;;;;;;;;;;18.50;41.10;;;;;;505289;235;1056;-44
2021/04/22 02:48:11;;;;;;;;;;;18.40;41.00;;;;;;505488;235;1173;-45
2021/04/22 02:50:12;;;;;;;;;;;18.40;41.20;;;;;;505279;234;1098;-44
2021/04/22 02:52:13;;;;;;;;;;;18.40;41.20;;;;;;505704;235;1254;-44
2021/04/22 02:54:15;;;;;;;;;;;18.40;41.20;;;;;;505374;235;1148;-44
2021/04/22 02:56:16;;;;;;;;;;;18.40;41.20;;;;;;505414;234;1047;-44
2021/04/22 02:58:17;;;;;;;;;;;18.40;41.20;;;;;;505246;235;1329;-44
2021/04/22 03:00:18;;;;;;;;;;;18.40;41.20;;;;;;505846;235;1107;-44
2021/04/22 03:02:20;;;;;;;;;;;18.40;41.10;;;;;;505360;235;1256;-44
2021/04/22 03:04:21;;;;;;;;;;;18.40;41.20;;;;;;505321;236;2185;-44
2021/04/22 03:06:22;;;;;;;;;;;18.40;41.20;;;;;;505308;235;1237;-44
2021/04/22 03:08:24;;;;;;;;;;;18.40;41.30;;;;;;505641;235;1274;-44
2021/04/22 03:10:25;;;;;;;;;;;18.30;41.20;;;;;;505529;235;1043;-44
2021/04/22 03:12:26;;;;;;;;;;;18.30;41.30;;;;;;505425;235;1030;-44
2021/04/22 03:14:27;;;;;;;;;;;18.30;41.20;;;;;;505775;235;1034;-44
2021/04/22 03:16:29;;;;;;;;;;;18.30;41.20;;;;;;505822;235;1190;-44
2021/04/22 03:18:30;;;;;;;;;;;18.30;41.30;;;;;;505528;236;1083;-44
2021/04/22 03:20:31;;;;;;;;;;;18.30;41.20;;;;;;505357;234;1301;-44
2021/04/22 03:22:33;;;;;;;;;;;18.40;41.10;;;;;;505577;235;1116;-44
2021/04/22 03:24:34;;;;;;;;;;;18.40;41.10;;;;;;505333;235;2186;-44
2021/04/22 03:26:35;;;;;;;;;;;18.50;41.10;;;;;;505411;234;1107;-44
2021/04/22 03:28:37;;;;;;;;;;;18.40;41.00;;;;;;505753;235;1014;-44
2021/04/22 03:30:38;;;;;;;;;;;18.40;41.10;;;;;;505520;235;1069;-44
2021/04/22 03:32:39;;;;;;;;;;;18.40;41.20;;;;;;505360;234;1206;-44
2021/04/22 03:34:40;;;;;;;;;;;18.40;41.10;;;;;;505468;235;1128;-45
2021/04/22 03:36:42;;;;;;;;;;;18.30;41.10;;;;;;505384;235;1200;-44
2021/04/22 03:38:43;;;;;;;;;;;18.30;41.10;;;;;;505339;235;1117;-45
2021/04/22 03:40:44;;;;;;;;;;;18.30;41.30;;;;;;505624;235;1049;-44
2021/04/22 03:42:45;;;;;;;;;;;18.30;41.30;;;;;;505286;235;1159;-44
2021/04/22 03:44:47;;;;;;;;;;;18.30;41.30;;;;;;505219;235;2197;-44
2021/04/22 03:46:48;;;;;;;;;;;18.30;41.30;;;;;;505481;235;1130;-44
2021/04/22 03:48:49;;;;;;;;;;;18.30;41.20;;;;;;505523;235;1115;-44
2021/04/22 03:50:51;;;;;;;;;;;18.30;41.30;;;;;;505821;235;1159;-44
2021/04/22 03:52:52;;;;;;;;;;;18.30;41.30;;;;;;505254;236;1088;-44
2021/04/22 03:54:55;;;;;;;;;;;18.40;41.20;;;;;;505235;235;1180;-44
2021/04/22 03:56:54;;;;;;;;;;;18.40;41.10;;;;;;505278;235;1365;-45
2021/04/22 03:58:56;;;;;;;;;;;18.40;41.10;;;;;;505331;235;1061;-45
2021/04/22 04:00:57;;;;;;;;;;;18.40;41.00;;;;;;505276;235;1213;-44
2021/04/22 04:02:58;;;;;;;;;;;18.80;40.30;;;;;;505805;235;1049;-44
2021/04/22 04:05:00;;;;;;;;;;;19.10;39.70;;;;;;505286;234;2142;-44
2021/04/22 04:07:01;;;;;;;;;;;19.30;39.20;;;;;;505765;236;1057;-44
2021/04/22 04:09:02;;;;;;;;;;;19.40;38.90;;;;;;505353;235;1281;-44
2021/04/22 04:11:03;;;;;;;;;;;19.60;38.70;;;;;;505487;235;1163;-45
2021/04/22 04:13:05;;;;;;;;;;;19.70;38.50;;;;;;505362;235;1075;-45
2021/04/22 04:15:06;;;;;;;;;;;19.70;38.40;;;;;;505346;235;1193;-44
2021/04/22 04:17:07;;;;;;;;;;;19.80;38.30;;;;;;505406;234;1039;-44
2021/04/22 04:19:09;;;;;;;;;;;19.80;38.10;;;;;;505776;235;1027;-44
2021/04/22 04:21:10;;;;;;;;;;;19.80;38.00;;;;;;505337;235;1230;-44
2021/04/22 04:23:11;;;;;;;;;;;19.90;37.90;;;;;;505471;235;1085;-44
2021/04/22 04:25:12;;;;;;;;;;;20.00;37.90;;;;;;505491;235;2142;-44
2021/04/22 04:27:14;;;;;;;;;;;20.00;37.80;;;;;;505214;235;1076;-45
2021/04/22 04:29:15;;;;;;;;;;;20.00;37.80;;;;;;505312;235;1023;-45
2021/04/22 04:31:16;;;;;;;;;;;20.10;37.70;;;;;;505324;235;1664;-44
2021/04/22 04:33:17;;;;;;;;;;;20.10;37.60;;;;;;505708;235;1155;-45
2021/04/22 04:35:19;;;;;;;;;;;20.20;37.70;;;;;;505706;235;1084;-45
2021/04/22 04:37:20;;;;;;;;;;;20.20;37.60;;;;;;505324;236;1227;-45
2021/04/22 04:39:21;;;;;;;;;;;20.20;37.50;;;;;;505453;234;1177;-45
2021/04/22 04:41:23;;;;;;;;;;;20.20;37.50;;;;;;505389;234;1202;-44
2021/04/22 04:43:24;;;;;;;;;;;20.30;37.50;;;;;;505482;235;1050;-44
2021/04/22 04:45:25;;;;;;;;;;;20.30;37.40;;;;;;505434;235;2193;-45
2021/04/22 04:47:26;;;;;;;;;;;20.30;37.40;;;;;;505640;235;1048;-44
2021/04/22 04:49:28;;;;;;;;;;;20.30;37.30;;;;;;505200;235;1068;-45
2021/04/22 04:51:29;;;;;;;;;;;20.40;37.40;;;;;;505292;235;1081;-45
2021/04/22 04:53:31;;;;;;;;;;;20.40;37.20;;;;;;504970;235;1049;-45
2021/04/22 04:55:31;;;;;;;;;;;20.40;37.20;;;;;;505177;235;1176;-44
2021/04/22 04:57:33;;;;;;;;;;;20.40;37.10;;;;;;505098;236;1184;-45
2021/04/22 04:59:34;;;;;;;;;;;20.50;37.10;;;;;;504955;235;1154;-45
2021/04/22 05:01:35;;;;;;;;;;;20.50;37.10;;;;;;504997;236;1078;-45
2021/04/22 05:03:37;;;;;;;;;;;20.50;37.10;;;;;;505060;236;1055;-44
2021/04/22 05:05:38;;;;;;;;;;;20.50;37.00;;;;;;505000;236;2188;-45
2021/04/22 05:07:39;;;;;;;;;;;20.50;37.00;;;;;;505056;235;1111;-44
2021/04/22 05:09:40;;;;;;;;;;;20.60;37.10;;;;;;505070;235;1146;-44
2021/04/22 05:11:42;;;;;;;;;;;20.60;37.00;;;;;;504926;235;1197;-45
2021/04/22 05:13:43;;;;;;;;;;;20.60;37.00;;;;;;505218;235;1198;-44
2021/04/22 05:15:44;;;;;;;;;;;20.60;36.90;;;;;;505085;234;1097;-45
2021/04/22 05:17:46;;;;;;;;;;;20.60;36.90;;;;;;505169;236;1089;-44
2021/04/22 05:19:47;;;;;;;;;;;20.60;36.90;;;;;;505279;235;1135;-45
2021/04/22 05:21:48;;;;;;;;;;;20.60;36.80;;;;;;504973;235;1058;-45
2021/04/22 05:23:49;;;;;;;;;;;20.70;36.80;;;;;;505505;234;1145;-45
2021/04/22 05:25:53;;;;;;;;;;;20.70;36.80;;;;;;505046;235;2197;-44
2021/04/22 05:27:52;;;;;;;;;;;20.70;36.80;;;;;;504841;236;2304;-45
2021/04/22 05:29:53;;;;;;;;;;;20.70;36.70;;;;;;504854;236;990;-45
2021/04/22 05:31:54;;;;;;;;;;;20.70;36.70;;;;;;504961;235;1055;-44
2021/04/22 05:33:56;;;;;;;;;;;20.70;36.80;;;;;;505052;235;1241;-45
2021/04/22 05:35:57;;;;;;;;;;;20.80;36.80;;;;;;504921;236;1135;-44
2021/04/22 05:37:58;;;;;;;;;;;20.80;36.80;;;;;;505053;235;1097;-45
2021/04/22 05:40:00;;;;;;;;;;;20.80;36.80;;;;;;504921;235;1058;-44
2021/04/22 05:42:01;;;;;;;;;;;20.80;36.80;;;;;;504827;235;1378;-45
2021/04/22 05:44:02;;;;;;;;;;;20.80;36.70;;;;;;504985;235;1102;-45
2021/04/22 05:46:03;;;;;;;;;;;20.80;36.70;;;;;;505006;235;2199;-44
2021/04/22 05:48:05;;;;;;;;;;;20.80;36.70;;;;;;504962;234;1106;-44
2021/04/22 05:50:06;;;;;;;;;;;20.80;36.70;;;;;;505123;235;1169;-44
2021/04/22 05:52:07;;;;;;;;;;;20.90;36.70;;;;;;504865;235;1103;-45
2021/04/22 05:54:09;;;;;;;;;;;20.90;36.60;;;;;;504904;235;1100;-45
2021/04/22 05:56:10;;;;;;;;;;;20.90;36.60;;;;;;504802;235;1260;-45
2021/04/22 05:58:11;;;;;;;;;;;20.90;36.50;;;;;;504893;235;1156;-44
2021/04/22 06:00:12;;;;;;;;;;;20.90;36.60;;;;;;504896;235;1110;-44
2021/04/22 06:02:14;;;;;;;;;;;20.90;36.50;;;;;;504675;234;1114;-45
2021/04/22 06:04:15;;;;;;;;;;;20.90;36.50;;;;;;504933;235;1051;-45
2021/04/22 06:06:16;;;;;;;;;;;20.90;36.60;;;;;;504811;235;2135;-44
2021/04/22 06:08:17;;;;;;;;;;;20.90;36.60;;;;;;504878;236;1089;-45
2021/04/22 06:10:19;;;;;;;;;;;21.00;36.60;;;;;;504823;234;1126;-45
2021/04/22 06:12:20;;;;;;;;;;;21.00;36.50;;;;;;504788;235;1186;-45
2021/04/22 06:14:21;;;;;;;;;;;21.00;36.60;;;;;;504670;235;1115;-45
2021/04/22 06:16:23;;;;;;;;;;;21.00;36.60;;;;;;504541;235;1325;-44
2021/04/22 06:18:24;;;;;;;;;;;20.90;36.50;;;;;;504767;235;1113;-44
2021/04/22 06:20:25;;;;;;;;;;;20.90;36.50;;;;;;504850;235;1056;-45
2021/04/22 06:22:26;;;;;;;;;;;21.00;36.50;;;;;;504734;236;1185;-45
2021/04/22 06:24:28;;;;;;;;;;;21.00;36.60;;;;;;504793;235;1119;-45
2021/04/22 06:26:31;;;;;;;;;;;21.00;36.60;;;;;;504974;235;2181;-45
2021/04/22 06:28:31;;;;;;;;;;;21.00;36.60;;;;;;505145;235;1588;-45
2021/04/22 06:30:32;;;;;;;;;;;21.00;36.60;;;;;;505035;235;1060;-44
2021/04/22 06:32:33;;;;;;;;;;;21.00;36.50;;;;;;505014;235;1118;-45
2021/04/22 06:34:35;;;;;;;;;;;21.00;36.60;;;;;;504723;235;1062;-44
2021/04/22 06:36:36;;;;;;;;;;;21.00;36.50;;;;;;504570;234;1117;-45
2021/04/22 06:38:37;;;;;;;;;;;21.00;36.50;;;;;;504848;235;1107;-44
2021/04/22 06:40:39;;;;;;;;;;;21.00;36.50;;;;;;504759;235;1167;-45
2021/04/22 06:42:40;;;;;;;;;;;21.00;36.50;;;;;;504774;235;1315;-45
2021/04/22 06:44:42;;;;;;;;;;;21.00;36.50;;;;;;504784;235;1200;-45
2021/04/22 06:46:43;;;;;;;;;;;21.00;36.50;;;;;;504650;235;2194;-44
2021/04/22 06:48:44;;;;;;;;;;;21.10;36.50;;;;;;504780;235;1450;-45
2021/04/22 06:50:45;;;;;;;;;;;21.10;36.50;;;;;;504786;235;1094;-44
2021/04/22 06:52:46;;;;;;;;;;;21.10;36.50;;;;;;504785;235;1103;-45
2021/04/22 06:54:48;;;;;;;;;;;21.10;36.50;;;;;;504995;235;1187;-45
2021/04/22 06:56:49;;;;;;;;;;;21.10;36.50;;;;;;504704;235;1432;-45
2021/04/22 06:58:50;;;;;;;;;;;21.10;36.40;;;;;;504892;235;1299;-45
2021/04/22 07:00:52;;;;;;;;;;;21.10;36.50;;;;;;504376;235;1356;-45
2021/04/22 07:02:53;;;;;;;;;;;21.10;36.50;;;;;;504962;235;1091;-44
2021/04/22 07:04:54;;;;;;;;;;;21.20;36.50;;;;;;504865;235;1076;-45
2021/04/22 07:06:56;;;;;;;;;;;21.10;36.50;;;;;;504756;236;2185;-45
2021/04/22 07:08:57;;;;;;;;;;;21.10;36.40;;;;;;504814;235;2088;-44
2021/04/22 07:10:59;;;;;;;;;;;21.20;36.50;;;;;;504716;235;1075;-45
2021/04/22 07:13:01;;;;;;;;;;;21.10;36.40;;;;;;504737;235;1159;-44
2021/04/22 07:15:01;;;;;;;;;;;21.20;36.40;;;;;;504770;235;1328;-44
2021/04/22 07:17:02;;;;;;;;;;;21.20;36.40;;;;;;504564;235;1208;-45
2021/04/22 07:19:04;;;;;;;;;;;21.20;36.50;;;;;;504638;236;1135;-44
2021/04/22 07:21:05;;;;;;;;;;;21.20;36.40;;;;;;504618;235;1335;-45
2021/04/22 07:23:06;;;;;;;;;;;21.20;36.40;;;;;;504667;236;1185;-45
2021/04/22 07:25:08;;;;;;;;;;;21.20;36.40;;;;;;504497;235;2123;-45
2021/04/22 07:27:09;;;;;;;;;;;21.20;36.50;;;;;;504473;235;1162;-45
2021/04/22 07:29:11;;;;;;;;;;;21.20;36.40;;;;;;504657;235;1108;-45
2021/04/22 07:31:12;;;;;;;;;;;21.20;36.40;;;;;;504643;235;1154;-44
2021/04/22 07:33:13;;;;;;;;;;;21.20;36.40;;;;;;504784;235;1158;-44
2021/04/22 07:35:15;;;;;;;;;;;21.20;36.40;;;;;;504588;235;1192;-45
2021/04/22 07:37:17;;;;;;;;;;;21.20;36.40;;;;;;504716;235;1291;-44
2021/04/22 07:39:17;;;;;;;;;;;21.20;36.40;;;;;;504552;235;2075;-45
2021/04/22 07:41:19;;;;;;;;;;;21.20;36.40;;;;;;504463;235;1088;-45
2021/04/22 07:43:20;;;;;;;;;;;21.20;36.40;;;;;;504495;235;1197;-45
2021/04/22 07:45:21;;;;;;;;;;;21.20;36.40;;;;;;504575;235;2182;-45
2021/04/22 07:47:23;;;;;;;;;;;21.20;36.40;;;;;;504499;234;1121;-44
2021/04/22 07:49:24;;;;;;;;;;;21.30;36.40;;;;;;504814;235;1076;-44
2021/04/22 07:51:25;;;;;;;;;;;21.20;36.30;;;;;;504719;235;1445;-44
2021/04/22 07:53:26;;;;;;;;;;;21.30;36.40;;;;;;504526;235;1334;-45
2021/04/22 07:55:30;;;;;;;;;;;21.30;36.40;;;;;;504433;235;1119;-44
2021/04/22 07:57:29;;;;;;;;;;;21.30;36.40;;;;;;504298;236;2064;-45
2021/04/22 07:59:31;;;;;;;;;;;21.30;36.40;;;;;;504700;235;1102;-45
2021/04/22 08:01:32;;;;;;;;;;;21.30;36.40;;;;;;504517;235;1227;-45
2021/04/22 08:03:33;;;;;;;;;;;21.30;36.40;;;;;;504640;235;1186;-45
2021/04/22 08:05:36;;;;;;;;;;;21.30;36.40;;;;;;504712;235;2147;-44
2021/04/22 08:07:36;;;;;;;;;;;21.30;36.40;;;;;;504650;236;2034;-45
2021/04/22 08:09:37;;;;;;;;;;;21.30;36.30;;;;;;504994;235;1041;-44
2021/04/22 08:11:38;;;;;;;;;;;21.30;36.30;;;;;;504781;235;1126;-44
2021/04/22 08:13:40;;;;;;;;;;;21.30;36.30;;;;;;504640;235;1168;-45
2021/04/22 08:15:41;;;;;;;;;;;21.30;36.30;;;;;;504581;235;1196;-45
2021/04/22 08:17:42;;;;;;;;;;;21.30;36.40;;;;;;504664;235;1069;-45
2021/04/22 08:19:43;;;;;;;;;;;21.30;36.40;;;;;;504545;235;1185;-44
2021/04/22 08:21:45;;;;;;;;;;;21.30;36.40;;;;;;504456;235;1129;-44
2021/04/22 08:23:46;;;;;;;;;;;21.30;36.40;;;;;;504982;235;1176;-45
2021/04/22 08:25:47;;;;;;;;;;;21.30;36.40;;;;;;504770;235;2181;-45
2021/04/22 08:27:49;;;;;;;;;;;21.30;36.40;;;;;;504844;235;1181;-44
2021/04/22 08:29:50;;;;;;;;;;;21.40;36.40;;;;;;504659;235;1096;-45
2021/04/22 08:31:51;;;;;;;;;;;21.30;36.40;;;;;;504705;235;1056;-44
2021/04/22 08:33:53;;;;;;;;;;;21.40;36.40;;;;;;504896;235;1089;-45
2021/04/22 08:35:54;;;;;;;;;;;21.40;36.40;;;;;;504718;235;1091;-45
2021/04/22 08:37:55;;;;;;;;;;;21.40;36.40;;;;;;504878;234;1099;-45
2021/04/22 08:39:56;;;;;;;;;;;21.40;36.50;;;;;;504534;234;1277;-45
2021/04/22 08:41:58;;;;;;;;;;;21.40;36.40;;;;;;504520;235;1323;-45
2021/04/22 08:44:00;;;;;;;;;;;21.40;36.40;;;;;;504719;235;1195;-45
2021/04/22 08:46:01;;;;;;;;;;;21.40;36.40;;;;;;504718;235;2182;-45
2021/04/22 08:48:03;;;;;;;;;;;21.40;36.40;;;;;;504667;234;1125;-44
2021/04/22 08:50:04;;;;;;;;;;;21.40;36.40;;;;;;504612;235;1200;-45
2021/04/22 08:52:05;;;;;;;;;;;21.40;36.40;;;;;;504560;235;1237;-45
2021/04/22 08:54:06;;;;;;;;;;;21.40;36.40;;;;;;504607;234;1064;-45
2021/04/22 08:56:08;;;;;;;;;;;21.40;36.40;;;;;;504552;235;1225;-44
2021/04/22 08:58:09;;;;;;;;;;;21.40;36.40;;;;;;504585;235;1243;-45
2021/04/22 09:00:11;;;;;;;;;;;21.40;36.40;;;;;;504717;235;1336;-45
2021/04/22 09:02:12;;;;;;;;;;;21.40;36.50;;;;;;504781;235;1141;-45
2021/04/22 09:04:13;;;;;;;;;;;21.40;36.40;;;;;;504523;236;1100;-45
2021/04/22 09:06:15;;;;;;;;;;;21.40;36.40;;;;;;504715;235;2181;-45
2021/04/22 09:08:16;;;;;;;;;;;21.40;36.40;;;;;;504577;235;1694;-45
2021/04/22 09:10:17;;;;;;;;;;;21.40;36.40;;;;;;504500;236;1088;-45
2021/04/22 09:12:18;;;;;;;;;;;21.40;36.40;;;;;;504852;235;1253;-45
2021/04/22 09:14:20;;;;;;;;;;;21.40;36.40;;;;;;504819;235;1110;-45
2021/04/22 09:16:21;;;;;;;;;;;21.40;36.40;;;;;;504452;235;1103;-45
2021/04/22 09:18:22;;;;;;;;;;;21.40;36.40;;;;;;504636;235;1128;-44
2021/04/22 09:20:23;;;;;;;;;;;21.50;36.40;;;;;;504821;235;1165;-45
2021/04/22 09:22:25;;;;;;;;;;;21.40;36.40;;;;;;504813;235;1083;-44
2021/04/22 09:24:26;;;;;;;;;;;21.50;36.40;;;;;;504533;235;1304;-45
2021/04/22 09:26:27;;;;;;;;;;;21.50;36.40;;;;;;504435;235;2119;-44
2021/04/22 09:28:29;;;;;;;;;;;21.40;36.50;;;;;;504415;232;1284;-44
2021/04/22 09:30:30;;;;;;;;;;;21.60;36.30;;;;;;504513;235;1135;-45
2021/04/22 09:32:32;;;;;;;;;;;21.60;36.20;;;;;;504496;235;1094;-45
2021/04/22 09:34:33;;;;;;;;;;;21.50;36.20;;;;;;504488;236;1113;-45
2021/04/22 09:36:34;;;;;;;;;;;21.50;36.40;;;;;;504509;234;1205;-45
2021/04/22 09:38:35;;;;;;;;;;;21.40;36.60;;;;;;504588;235;1375;-45
2021/04/22 09:40:38;;;;;;;;;;;21.30;36.70;;;;;;504376;235;1348;-45
2021/04/22 09:42:38;;;;;;;;;;;21.30;36.80;;;;;;504876;235;1979;-45
2021/04/22 09:44:40;;;;;;;;;;;21.30;36.90;;;;;;504728;234;1187;-45
2021/04/22 09:46:42;;;;;;;;;;;21.30;36.90;;;;;;504712;235;2135;-45
2021/04/22 09:48:42;;;;;;;;;;;21.30;36.90;;;;;;504666;235;2185;-45
2021/04/22 09:50:44;;;;;;;;;;;21.30;36.80;;;;;;504769;235;1214;-44
2021/04/22 09:52:45;;;;;;;;;;;21.30;36.80;;;;;;504686;235;1248;-44
2021/04/22 09:54:46;;;;;;;;;;;21.20;36.80;;;;;;504681;235;1128;-44
2021/04/22 09:56:47;;;;;;;;;;;21.20;36.90;;;;;;503417;235;1811;-44
2021/04/22 09:58:49;;;;;;;;;;;21.30;37.00;;;;;;504605;235;1190;-44
2021/04/22 10:00:50;;;;;;;;;;;21.30;36.80;;;;;;504694;235;1100;-44
2021/04/22 10:02:53;;;;;;;;;;;21.30;36.80;;;;;;504545;235;1081;-45
2021/04/22 10:04:53;;;;;;;;;;;21.30;36.70;;;;;;504513;235;1355;-45
2021/04/22 10:06:54;;;;;;;;;;;21.20;36.90;;;;;;504436;235;2258;-45
2021/04/22 10:08:56;;;;;;;;;;;21.10;37.30;;;;;;504574;235;1194;-44
2021/04/22 10:10:57;;;;;;;;;;;21.20;37.10;;;;;;504560;235;1115;-45
2021/04/22 10:12:58;;;;;;;;;;;21.30;36.90;;;;;;504592;235;1094;-44
2021/04/22 10:15:00;;;;;;;;;;;21.20;36.90;;;;;;504669;235;1275;-45
2021/04/22 10:17:01;;;;;;;;;;;21.00;37.30;;;;;;504630;235;1132;-45
2021/04/22 10:19:02;;;;;;;;;;;20.80;37.70;;;;;;504729;235;1100;-45
2021/04/22 10:21:03;;;;;;;;;;;20.70;38.00;;;;;;504638;235;1220;-45
2021/04/22 10:23:05;;;;;;;;;;;20.60;38.20;;;;;;504568;235;1146;-44
2021/04/22 10:25:06;;;;;;;;;;;20.40;38.40;;;;;;504666;235;2422;-44
2021/04/22 10:27:08;;;;;;;;;;;20.40;38.60;;;;;;504537;235;2174;-44
2021/04/22 10:29:09;;;;;;;;;;;20.30;38.70;;;;;;504542;235;1211;-44
2021/04/22 10:31:10;;;;;;;;;;;20.30;38.80;;;;;;504523;235;1223;-44
2021/04/22 10:33:11;;;;;;;;;;;20.40;38.60;;;;;;504611;235;1203;-44
2021/04/22 10:35:12;;;;;;;;;;;20.70;38.10;;;;;;504516;235;1067;-44
2021/04/22 10:37:14;;;;;;;;;;;20.90;37.60;;;;;;504524;236;1089;-44
2021/04/22 10:39:16;;;;;;;;;;;21.10;37.30;;;;;;504698;235;1215;-44
2021/04/22 10:41:17;;;;;;;;;;;21.10;37.20;;;;;;504411;235;1153;-44
2021/04/22 10:43:18;;;;;;;;;;;21.10;37.10;;;;;;504376;235;1125;-44
2021/04/22 10:45:19;;;;;;;;;;;21.10;37.10;;;;;;504700;235;1293;-44
2021/04/22 10:47:20;;;;;;;;;;;21.20;37.20;;;;;;504694;235;2186;-44
2021/04/22 10:49:22;;;;;;;;;;;21.20;37.00;;;;;;504665;235;1165;-45
2021/04/22 10:51:23;;;;;;;;;;;21.10;37.30;;;;;;504686;235;1197;-44
2021/04/22 10:53:25;;;;;;;;;;;21.10;37.30;;;;;;504573;235;1132;-45
2021/04/22 10:55:26;;;;;;;;;;;21.20;37.10;;;;;;504477;235;1136;-45
2021/04/22 10:57:27;;;;;;;;;;;21.30;37.00;;;;;;504438;234;1343;-44
2021/04/22 10:59:29;;;;;;;;;;;21.30;36.80;;;;;;504497;235;1344;-44
2021/04/22 11:01:30;;;;;;;;;;;21.40;36.70;;;;;;504528;235;1213;-45
2021/04/22 11:03:32;;;;;;;;;;;21.50;36.60;;;;;;504579;235;1322;-45
2021/04/22 11:05:33;;;;;;;;;;;21.50;36.60;;;;;;504518;235;1132;-45
2021/04/22 11:07:34;;;;;;;;;;;21.50;36.50;;;;;;504489;235;2173;-45
2021/04/22 11:09:36;;;;;;;;;;;21.60;36.40;;;;;;504577;235;1066;-44
2021/04/22 11:11:37;;;;;;;;;;;21.30;36.70;;;;;;504409;234;1111;-45
2021/04/22 11:13:38;;;;;;;;;;;21.20;37.10;;;;;;504466;235;2098;-44
2021/04/22 11:15:39;;;;;;;;;;;21.20;37.20;;;;;;504628;235;1331;-44
2021/04/22 11:17:41;;;;;;;;;;;21.30;37.00;;;;;;504536;235;1119;-44
2021/04/22 11:19:42;;;;;;;;;;;21.40;36.80;;;;;;504471;235;1091;-44
2021/04/22 11:21:43;;;;;;;;;;;21.40;36.80;;;;;;504700;235;1209;-45
2021/04/22 11:23:45;;;;;;;;;;;21.40;36.70;;;;;;504391;236;1184;-44
2021/04/22 11:25:46;;;;;;;;;;;21.50;36.60;;;;;;504661;235;1507;-44
2021/04/22 11:27:49;;;;;;;;;;;21.50;36.60;;;;;;504601;235;2189;-45
2021/04/22 11:29:49;;;;;;;;;;;21.50;36.60;;;;;;504613;235;1230;-44
2021/04/22 11:31:51;;;;;;;;;;;21.40;36.60;;;;;;504574;235;1159;-44
2021/04/22 11:33:52;;;;;;;;;;;21.30;36.90;;;;;;504664;235;1092;-45
2021/04/22 11:35:53;;;;;;;;;;;21.10;37.20;;;;;;504656;235;1121;-44
2021/04/22 11:37:54;;;;;;;;;;;21.00;37.60;;;;;;504739;235;1105;-44
2021/04/22 11:39:56;;;;;;;;;;;20.70;37.80;;;;;;504758;235;1083;-45
2021/04/22 11:41:59;;;;;;;;;;;20.60;38.20;;;;;;504655;235;1199;-45
2021/04/22 11:43:58;;;;;;;;;;;20.30;38.80;;;;;;504517;236;2042;-44
2021/04/22 11:45:59;;;;;;;;;;;20.00;39.20;;;;;;504772;236;1178;-44
2021/04/22 11:48:02;;;;;;;;;;;19.80;39.70;;;;;;504701;235;2237;-44
2021/04/22 11:50:02;;;;;;;;;;;19.70;40.10;;;;;;504728;235;1513;-44
2021/04/22 11:52:03;;;;;;;;;;;19.50;40.40;;;;;;504700;234;1068;-44
2021/04/22 11:54:05;;;;;;;;;;;19.40;40.50;;;;;;504651;234;1089;-44
2021/04/22 11:56:06;;;;;;;;;;;19.30;40.70;;;;;;504412;234;1133;-44